sensor_id;sensor_type;location;lat;lon;timestamp;P1;durP1;ratioP1;P2;durP2;ratioP2
62401;SDS011;48440;51.224;22.506;2023-04-25T00:02:01;9.98;;;8.98;;
62401;SDS011;48440;51.224;22.506;2023-04-25T00:04:28;12.13;;;8.65;;
62401;SDS011;48440;51.224;22.506;2023-04-25T00:06:55;11.57;;;8.90;;
62401;SDS011;48440;51.224;22.506;2023-04-25T00:09:21;13.57;;;9.35;;
62401;SDS011;48440;51.224;22.506;2023-04-25T00:11:47;11.98;;;9.48;;
62401;SDS011;48440;51.224;22.506;2023-04-25T00:14:13;12.15;;;9.55;;
62401;SDS011;48440;51.224;22.506;2023-04-25T00:16:39;13.13;;;9.20;;
62401;SDS011;48440;51.224;22.506;2023-04-25T00:19:06;11.73;;;9.15;;
62401;SDS011;48440;51.224;22.506;2023-04-25T00:21:32;14.00;;;9.30;;
62401;SDS011;48440;51.224;22.506;2023-04-25T00:23:58;13.15;;;9.43;;
62401;SDS011;48440;51.224;22.506;2023-04-25T00:26:24;11.13;;;9.27;;
62401;SDS011;48440;51.224;22.506;2023-04-25T00:28:50;14.00;;;8.93;;
62401;SDS011;48440;51.224;22.506;2023-04-25T00:31:16;12.98;;;9.30;;
62401;SDS011;48440;51.224;22.506;2023-04-25T00:33:42;11.80;;;9.13;;
62401;SDS011;48440;51.224;22.506;2023-04-25T00:36:07;13.20;;;10.13;;
62401;SDS011;48440;51.224;22.506;2023-04-25T00:38:34;11.18;;;9.65;;
62401;SDS011;48440;51.224;22.506;2023-04-25T00:40:59;15.70;;;9.85;;
62401;SDS011;48440;51.224;22.506;2023-04-25T00:43:28;13.45;;;9.98;;
62401;SDS011;48440;51.224;22.506;2023-04-25T00:45:56;11.48;;;9.13;;
62401;SDS011;48440;51.224;22.506;2023-04-25T00:48:22;13.82;;;9.13;;
62401;SDS011;48440;51.224;22.506;2023-04-25T00:50:51;12.52;;;9.35;;
62401;SDS011;48440;51.224;22.506;2023-04-25T00:53:19;12.10;;;9.35;;
62401;SDS011;48440;51.224;22.506;2023-04-25T00:55:46;11.25;;;9.07;;
62401;SDS011;48440;51.224;22.506;2023-04-25T00:58:12;13.73;;;9.32;;
62401;SDS011;48440;51.224;22.506;2023-04-25T01:00:39;12.00;;;8.98;;
62401;SDS011;48440;51.224;22.506;2023-04-25T01:03:08;11.98;;;10.02;;
62401;SDS011;48440;51.224;22.506;2023-04-25T01:05:35;12.13;;;10.02;;
62401;SDS011;48440;51.224;22.506;2023-04-25T01:08:01;14.38;;;9.65;;
62401;SDS011;48440;51.224;22.506;2023-04-25T01:10:27;13.10;;;10.80;;
62401;SDS011;48440;51.224;22.506;2023-04-25T01:12:52;14.82;;;10.88;;
62401;SDS011;48440;51.224;22.506;2023-04-25T01:15:21;13.55;;;10.02;;
62401;SDS011;48440;51.224;22.506;2023-04-25T01:17:47;15.63;;;10.40;;
62401;SDS011;48440;51.224;22.506;2023-04-25T01:20:14;19.00;;;11.20;;
62401;SDS011;48440;51.224;22.506;2023-04-25T01:22:40;11.75;;;10.02;;
62401;SDS011;48440;51.224;22.506;2023-04-25T01:25:07;13.25;;;10.70;;
62401;SDS011;48440;51.224;22.506;2023-04-25T01:27:35;14.15;;;10.55;;
62401;SDS011;48440;51.224;22.506;2023-04-25T01:30:01;14.45;;;10.45;;
62401;SDS011;48440;51.224;22.506;2023-04-25T01:32:28;12.15;;;10.20;;
62401;SDS011;48440;51.224;22.506;2023-04-25T01:35:03;14.98;;;10.30;;
62401;SDS011;48440;51.224;22.506;2023-04-25T01:37:35;13.20;;;10.27;;
62401;SDS011;48440;51.224;22.506;2023-04-25T01:40:05;12.63;;;10.13;;
62401;SDS011;48440;51.224;22.506;2023-04-25T01:42:32;15.02;;;10.00;;
62401;SDS011;48440;51.224;22.506;2023-04-25T01:45:02;13.68;;;10.27;;
62401;SDS011;48440;51.224;22.506;2023-04-25T01:47:28;13.85;;;10.30;;
62401;SDS011;48440;51.224;22.506;2023-04-25T01:49:54;14.60;;;10.48;;
62401;SDS011;48440;51.224;22.506;2023-04-25T01:52:20;13.43;;;10.15;;
62401;SDS011;48440;51.224;22.506;2023-04-25T01:54:46;14.18;;;9.95;;
62401;SDS011;48440;51.224;22.506;2023-04-25T01:57:13;13.38;;;9.93;;
62401;SDS011;48440;51.224;22.506;2023-04-25T01:59:39;15.20;;;9.80;;
62401;SDS011;48440;51.224;22.506;2023-04-25T02:02:05;12.48;;;9.75;;
62401;SDS011;48440;51.224;22.506;2023-04-25T02:04:31;13.18;;;10.38;;
62401;SDS011;48440;51.224;22.506;2023-04-25T02:06:57;11.63;;;10.20;;
62401;SDS011;48440;51.224;22.506;2023-04-25T02:09:23;13.43;;;10.10;;
62401;SDS011;48440;51.224;22.506;2023-04-25T02:11:49;12.80;;;9.95;;
62401;SDS011;48440;51.224;22.506;2023-04-25T02:14:14;12.48;;;10.00;;
62401;SDS011;48440;51.224;22.506;2023-04-25T02:16:40;12.30;;;9.10;;
62401;SDS011;48440;51.224;22.506;2023-04-25T02:19:08;12.05;;;9.60;;
62401;SDS011;48440;51.224;22.506;2023-04-25T02:21:35;14.23;;;10.32;;
62401;SDS011;48440;51.224;22.506;2023-04-25T02:24:01;12.77;;;9.38;;
62401;SDS011;48440;51.224;22.506;2023-04-25T02:26:26;13.88;;;9.77;;
62401;SDS011;48440;51.224;22.506;2023-04-25T02:28:52;12.23;;;9.65;;
62401;SDS011;48440;51.224;22.506;2023-04-25T02:31:18;12.63;;;9.50;;
62401;SDS011;48440;51.224;22.506;2023-04-25T02:33:43;12.00;;;9.82;;
62401;SDS011;48440;51.224;22.506;2023-04-25T02:36:09;14.82;;;9.23;;
62401;SDS011;48440;51.224;22.506;2023-04-25T02:38:34;12.70;;;9.88;;
62401;SDS011;48440;51.224;22.506;2023-04-25T02:41:00;11.70;;;9.32;;
62401;SDS011;48440;51.224;22.506;2023-04-25T02:43:25;12.75;;;9.60;;
62401;SDS011;48440;51.224;22.506;2023-04-25T02:45:51;11.65;;;8.88;;
62401;SDS011;48440;51.224;22.506;2023-04-25T02:48:17;11.93;;;9.10;;
62401;SDS011;48440;51.224;22.506;2023-04-25T02:50:43;12.35;;;9.82;;
62401;SDS011;48440;51.224;22.506;2023-04-25T02:53:09;13.65;;;9.25;;
62401;SDS011;48440;51.224;22.506;2023-04-25T02:55:35;11.63;;;9.15;;
62401;SDS011;48440;51.224;22.506;2023-04-25T02:58:01;12.73;;;9.85;;
62401;SDS011;48440;51.224;22.506;2023-04-25T03:00:27;13.45;;;9.45;;
62401;SDS011;48440;51.224;22.506;2023-04-25T03:02:52;10.98;;;8.52;;
62401;SDS011;48440;51.224;22.506;2023-04-25T03:05:20;9.77;;;8.50;;
62401;SDS011;48440;51.224;22.506;2023-04-25T03:07:46;11.90;;;9.52;;
62401;SDS011;48440;51.224;22.506;2023-04-25T03:10:12;11.13;;;8.48;;
62401;SDS011;48440;51.224;22.506;2023-04-25T03:12:38;13.68;;;8.85;;
62401;SDS011;48440;51.224;22.506;2023-04-25T03:15:04;11.35;;;8.88;;
62401;SDS011;48440;51.224;22.506;2023-04-25T03:17:30;11.25;;;9.48;;
62401;SDS011;48440;51.224;22.506;2023-04-25T03:19:56;10.38;;;9.00;;
62401;SDS011;48440;51.224;22.506;2023-04-25T03:22:22;12.65;;;9.60;;
62401;SDS011;48440;51.224;22.506;2023-04-25T03:24:48;13.30;;;9.50;;
62401;SDS011;48440;51.224;22.506;2023-04-25T03:27:14;11.80;;;9.05;;
62401;SDS011;48440;51.224;22.506;2023-04-25T03:29:40;10.80;;;9.07;;
62401;SDS011;48440;51.224;22.506;2023-04-25T03:32:06;12.13;;;9.30;;
62401;SDS011;48440;51.224;22.506;2023-04-25T03:34:32;11.95;;;9.18;;
62401;SDS011;48440;51.224;22.506;2023-04-25T03:36:58;9.85;;;8.57;;
62401;SDS011;48440;51.224;22.506;2023-04-25T03:39:25;11.43;;;8.88;;
62401;SDS011;48440;51.224;22.506;2023-04-25T03:41:50;11.32;;;9.13;;
62401;SDS011;48440;51.224;22.506;2023-04-25T03:44:16;11.02;;;9.07;;
62401;SDS011;48440;51.224;22.506;2023-04-25T03:46:45;10.48;;;8.63;;
62401;SDS011;48440;51.224;22.506;2023-04-25T03:49:11;11.13;;;8.82;;
62401;SDS011;48440;51.224;22.506;2023-04-25T03:51:37;12.40;;;9.70;;
62401;SDS011;48440;51.224;22.506;2023-04-25T03:54:02;11.70;;;9.07;;
62401;SDS011;48440;51.224;22.506;2023-04-25T03:56:28;12.00;;;8.95;;
62401;SDS011;48440;51.224;22.506;2023-04-25T03:58:53;11.98;;;8.98;;
62401;SDS011;48440;51.224;22.506;2023-04-25T04:01:19;12.13;;;9.35;;
62401;SDS011;48440;51.224;22.506;2023-04-25T04:03:55;12.07;;;9.80;;
62401;SDS011;48440;51.224;22.506;2023-04-25T04:06:21;12.65;;;9.57;;
62401;SDS011;48440;51.224;22.506;2023-04-25T04:08:47;12.10;;;10.20;;
62401;SDS011;48440;51.224;22.506;2023-04-25T04:11:13;12.15;;;9.63;;
62401;SDS011;48440;51.224;22.506;2023-04-25T04:13:38;13.32;;;9.95;;
62401;SDS011;48440;51.224;22.506;2023-04-25T04:16:06;12.00;;;10.48;;
62401;SDS011;48440;51.224;22.506;2023-04-25T04:22:09;13.32;;;10.55;;
62401;SDS011;48440;51.224;22.506;2023-04-25T04:24:45;12.32;;;10.02;;
62401;SDS011;48440;51.224;22.506;2023-04-25T04:27:16;14.57;;;10.13;;
62401;SDS011;48440;51.224;22.506;2023-04-25T04:29:43;15.80;;;11.20;;
62401;SDS011;48440;51.224;22.506;2023-04-25T04:32:08;12.95;;;10.73;;
62401;SDS011;48440;51.224;22.506;2023-04-25T04:34:45;12.80;;;10.15;;
62401;SDS011;48440;51.224;22.506;2023-04-25T04:37:32;16.13;;;9.98;;
62401;SDS011;48440;51.224;22.506;2023-04-25T04:39:58;13.98;;;10.80;;
62401;SDS011;48440;51.224;22.506;2023-04-25T04:52:04;15.25;;;10.82;;
62401;SDS011;48440;51.224;22.506;2023-04-25T04:54:30;13.57;;;10.88;;
62401;SDS011;48440;51.224;22.506;2023-04-25T04:57:00;17.45;;;11.65;;
62401;SDS011;48440;51.224;22.506;2023-04-25T04:59:35;14.50;;;11.50;;
62401;SDS011;48440;51.224;22.506;2023-04-25T05:02:01;14.82;;;11.07;;
62401;SDS011;48440;51.224;22.506;2023-04-25T05:04:27;14.60;;;11.30;;
62401;SDS011;48440;51.224;22.506;2023-04-25T05:06:58;15.32;;;10.52;;
62401;SDS011;48440;51.224;22.506;2023-04-25T05:09:27;16.15;;;11.30;;
62401;SDS011;48440;51.224;22.506;2023-04-25T05:11:53;14.30;;;11.25;;
62401;SDS011;48440;51.224;22.506;2023-04-25T05:14:19;15.80;;;11.40;;
62401;SDS011;48440;51.224;22.506;2023-04-25T05:16:44;15.10;;;11.13;;
62401;SDS011;48440;51.224;22.506;2023-04-25T05:19:10;14.98;;;11.57;;
62401;SDS011;48440;51.224;22.506;2023-04-25T05:21:35;15.95;;;11.77;;
62401;SDS011;48440;51.224;22.506;2023-04-25T05:24:01;14.10;;;11.20;;
62401;SDS011;48440;51.224;22.506;2023-04-25T05:26:27;13.43;;;10.95;;
62401;SDS011;48440;51.224;22.506;2023-04-25T05:28:56;15.52;;;11.13;;
62401;SDS011;48440;51.224;22.506;2023-04-25T05:31:22;16.30;;;10.70;;
62401;SDS011;48440;51.224;22.506;2023-04-25T05:33:48;13.68;;;10.25;;
62401;SDS011;48440;51.224;22.506;2023-04-25T05:36:14;13.43;;;10.68;;
62401;SDS011;48440;51.224;22.506;2023-04-25T05:38:39;12.18;;;9.82;;
62401;SDS011;48440;51.224;22.506;2023-04-25T05:41:05;14.32;;;10.70;;
62401;SDS011;48440;51.224;22.506;2023-04-25T05:43:30;14.88;;;10.15;;
62401;SDS011;48440;51.224;22.506;2023-04-25T05:45:56;16.80;;;10.30;;
62401;SDS011;48440;51.224;22.506;2023-04-25T05:48:22;15.30;;;10.88;;
62401;SDS011;48440;51.224;22.506;2023-04-25T05:50:47;14.15;;;11.60;;
62401;SDS011;48440;51.224;22.506;2023-04-25T05:53:13;13.43;;;9.73;;
62401;SDS011;48440;51.224;22.506;2023-04-25T05:55:38;13.95;;;10.15;;
62401;SDS011;48440;51.224;22.506;2023-04-25T05:58:05;12.90;;;10.32;;
62401;SDS011;48440;51.224;22.506;2023-04-25T06:00:32;15.82;;;11.02;;
62401;SDS011;48440;51.224;22.506;2023-04-25T06:02:58;14.43;;;10.88;;
62401;SDS011;48440;51.224;22.506;2023-04-25T06:05:27;13.73;;;10.30;;
62401;SDS011;48440;51.224;22.506;2023-04-25T06:08:00;14.40;;;10.05;;
62401;SDS011;48440;51.224;22.506;2023-04-25T06:10:26;14.27;;;10.50;;
62401;SDS011;48440;51.224;22.506;2023-04-25T06:12:51;13.90;;;10.07;;
62401;SDS011;48440;51.224;22.506;2023-04-25T06:15:17;14.25;;;10.35;;
62401;SDS011;48440;51.224;22.506;2023-04-25T06:17:43;15.65;;;10.50;;
62401;SDS011;48440;51.224;22.506;2023-04-25T06:20:08;15.43;;;10.23;;
62401;SDS011;48440;51.224;22.506;2023-04-25T06:22:34;12.35;;;10.38;;
62401;SDS011;48440;51.224;22.506;2023-04-25T06:25:00;13.75;;;10.07;;
62401;SDS011;48440;51.224;22.506;2023-04-25T06:27:25;12.57;;;9.73;;
62401;SDS011;48440;51.224;22.506;2023-04-25T06:29:51;14.57;;;10.13;;
62401;SDS011;48440;51.224;22.506;2023-04-25T06:32:17;13.98;;;10.23;;
62401;SDS011;48440;51.224;22.506;2023-04-25T06:34:43;15.18;;;10.35;;
62401;SDS011;48440;51.224;22.506;2023-04-25T06:37:16;16.60;;;10.63;;
62401;SDS011;48440;51.224;22.506;2023-04-25T06:39:42;15.60;;;10.85;;
62401;SDS011;48440;51.224;22.506;2023-04-25T06:42:07;18.10;;;11.88;;
62401;SDS011;48440;51.224;22.506;2023-04-25T06:44:33;17.77;;;11.43;;
62401;SDS011;48440;51.224;22.506;2023-04-25T06:46:58;18.73;;;12.27;;
62401;SDS011;48440;51.224;22.506;2023-04-25T06:49:24;18.05;;;11.13;;
62401;SDS011;48440;51.224;22.506;2023-04-25T06:51:50;17.75;;;11.02;;
62401;SDS011;48440;51.224;22.506;2023-04-25T06:54:15;15.82;;;9.95;;
62401;SDS011;48440;51.224;22.506;2023-04-25T06:56:41;14.82;;;9.77;;
62401;SDS011;48440;51.224;22.506;2023-04-25T06:59:06;14.05;;;9.98;;
62401;SDS011;48440;51.224;22.506;2023-04-25T07:01:32;17.17;;;10.60;;
62401;SDS011;48440;51.224;22.506;2023-04-25T07:03:58;17.17;;;11.27;;
62401;SDS011;48440;51.224;22.506;2023-04-25T07:06:24;14.73;;;11.40;;
62401;SDS011;48440;51.224;22.506;2023-04-25T07:08:52;17.70;;;11.25;;
62401;SDS011;48440;51.224;22.506;2023-04-25T07:11:17;15.90;;;11.68;;
62401;SDS011;48440;51.224;22.506;2023-04-25T07:13:42;19.42;;;11.30;;
62401;SDS011;48440;51.224;22.506;2023-04-25T07:16:08;16.52;;;11.27;;
62401;SDS011;48440;51.224;22.506;2023-04-25T07:18:34;12.20;;;9.70;;
62401;SDS011;48440;51.224;22.506;2023-04-25T07:21:00;11.82;;;9.48;;
62401;SDS011;48440;51.224;22.506;2023-04-25T07:23:26;12.27;;;7.95;;
62401;SDS011;48440;51.224;22.506;2023-04-25T07:25:52;9.80;;;7.80;;
62401;SDS011;48440;51.224;22.506;2023-04-25T07:28:18;15.18;;;8.73;;
62401;SDS011;48440;51.224;22.506;2023-04-25T07:30:43;13.68;;;9.27;;
62401;SDS011;48440;51.224;22.506;2023-04-25T07:33:09;14.00;;;8.45;;
62401;SDS011;48440;51.224;22.506;2023-04-25T07:35:37;12.40;;;9.73;;
62401;SDS011;48440;51.224;22.506;2023-04-25T07:38:03;13.88;;;9.25;;
62401;SDS011;48440;51.224;22.506;2023-04-25T07:40:28;10.40;;;7.55;;
62401;SDS011;48440;51.224;22.506;2023-04-25T07:42:55;13.25;;;9.05;;
62401;SDS011;48440;51.224;22.506;2023-04-25T07:45:20;16.60;;;10.00;;
62401;SDS011;48440;51.224;22.506;2023-04-25T07:47:46;13.45;;;9.23;;
62401;SDS011;48440;51.224;22.506;2023-04-25T07:50:12;13.43;;;9.25;;
62401;SDS011;48440;51.224;22.506;2023-04-25T07:52:38;12.98;;;8.98;;
62401;SDS011;48440;51.224;22.506;2023-04-25T07:55:04;11.68;;;9.05;;
62401;SDS011;48440;51.224;22.506;2023-04-25T07:57:31;10.93;;;8.18;;
62401;SDS011;48440;51.224;22.506;2023-04-25T07:59:59;8.27;;;7.10;;
62401;SDS011;48440;51.224;22.506;2023-04-25T08:02:28;8.38;;;7.30;;
62401;SDS011;48440;51.224;22.506;2023-04-25T08:05:19;10.43;;;7.00;;
62401;SDS011;48440;51.224;22.506;2023-04-25T08:07:55;9.65;;;6.38;;
62401;SDS011;48440;51.224;22.506;2023-04-25T08:10:22;7.35;;;6.35;;
62401;SDS011;48440;51.224;22.506;2023-04-25T08:12:48;7.80;;;6.38;;
62401;SDS011;48440;51.224;22.506;2023-04-25T08:15:14;7.05;;;5.57;;
62401;SDS011;48440;51.224;22.506;2023-04-25T08:17:40;5.97;;;5.38;;
62401;SDS011;48440;51.224;22.506;2023-04-25T08:20:09;7.07;;;5.90;;
62401;SDS011;48440;51.224;22.506;2023-04-25T08:22:35;6.25;;;5.30;;
62401;SDS011;48440;51.224;22.506;2023-04-25T08:25:05;6.65;;;5.00;;
62401;SDS011;48440;51.224;22.506;2023-04-25T08:27:31;7.45;;;5.25;;
62401;SDS011;48440;51.224;22.506;2023-04-25T08:29:57;6.30;;;4.80;;
62401;SDS011;48440;51.224;22.506;2023-04-25T08:32:23;8.27;;;4.63;;
62401;SDS011;48440;51.224;22.506;2023-04-25T08:34:50;5.93;;;4.50;;
62401;SDS011;48440;51.224;22.506;2023-04-25T08:37:36;5.80;;;4.53;;
62401;SDS011;48440;51.224;22.506;2023-04-25T08:40:09;7.25;;;5.10;;
62401;SDS011;48440;51.224;22.506;2023-04-25T08:42:48;4.97;;;4.40;;
62401;SDS011;48440;51.224;22.506;2023-04-25T08:45:51;4.75;;;3.85;;
62401;SDS011;48440;51.224;22.506;2023-04-25T08:51:02;6.20;;;4.10;;
62401;SDS011;48440;51.224;22.506;2023-04-25T08:53:33;4.40;;;3.80;;
62401;SDS011;48440;51.224;22.506;2023-04-25T08:56:08;5.20;;;3.97;;
62401;SDS011;48440;51.224;22.506;2023-04-25T08:58:38;6.18;;;4.10;;
62401;SDS011;48440;51.224;22.506;2023-04-25T09:01:15;5.78;;;4.00;;
62401;SDS011;48440;51.224;22.506;2023-04-25T09:03:52;6.53;;;4.13;;
62401;SDS011;48440;51.224;22.506;2023-04-25T09:06:40;7.18;;;4.35;;
62401;SDS011;48440;51.224;22.506;2023-04-25T09:09:16;4.85;;;3.80;;
62401;SDS011;48440;51.224;22.506;2023-04-25T09:11:49;6.03;;;5.10;;
62401;SDS011;48440;51.224;22.506;2023-04-25T09:14:20;6.43;;;3.90;;
62401;SDS011;48440;51.224;22.506;2023-04-25T09:19:22;4.90;;;3.92;;
62401;SDS011;48440;51.224;22.506;2023-04-25T09:22:00;5.47;;;4.15;;
62401;SDS011;48440;51.224;22.506;2023-04-25T09:24:43;5.47;;;4.03;;
62401;SDS011;48440;51.224;22.506;2023-04-25T09:27:18;5.85;;;4.53;;
62401;SDS011;48440;51.224;22.506;2023-04-25T09:29:59;6.65;;;4.72;;
62401;SDS011;48440;51.224;22.506;2023-04-25T09:32:41;5.68;;;4.53;;
62401;SDS011;48440;51.224;22.506;2023-04-25T09:35:22;6.00;;;4.88;;
62401;SDS011;48440;51.224;22.506;2023-04-25T09:38:22;7.15;;;5.10;;
62401;SDS011;48440;51.224;22.506;2023-04-25T09:40:48;5.43;;;4.30;;
62401;SDS011;48440;51.224;22.506;2023-04-25T09:43:21;7.05;;;5.43;;
62401;SDS011;48440;51.224;22.506;2023-04-25T09:45:49;5.50;;;4.82;;
62401;SDS011;48440;51.224;22.506;2023-04-25T09:48:19;7.22;;;5.10;;
62401;SDS011;48440;51.224;22.506;2023-04-25T09:50:54;6.40;;;5.15;;
62401;SDS011;48440;51.224;22.506;2023-04-25T09:53:43;7.00;;;5.50;;
62401;SDS011;48440;51.224;22.506;2023-04-25T09:56:15;8.88;;;5.75;;
62401;SDS011;48440;51.224;22.506;2023-04-25T09:58:42;7.45;;;5.80;;
62401;SDS011;48440;51.224;22.506;2023-04-25T10:01:12;7.03;;;5.57;;
62401;SDS011;48440;51.224;22.506;2023-04-25T10:03:38;8.65;;;5.75;;
62401;SDS011;48440;51.224;22.506;2023-04-25T10:06:09;6.78;;;5.82;;
62401;SDS011;48440;51.224;22.506;2023-04-25T10:08:38;9.03;;;6.33;;
62401;SDS011;48440;51.224;22.506;2023-04-25T10:11:06;6.68;;;5.75;;
62401;SDS011;48440;51.224;22.506;2023-04-25T10:13:34;8.02;;;5.88;;
62401;SDS011;48440;51.224;22.506;2023-04-25T10:16:02;7.07;;;5.95;;
62401;SDS011;48440;51.224;22.506;2023-04-25T10:18:30;7.97;;;6.88;;
62401;SDS011;48440;51.224;22.506;2023-04-25T10:21:01;9.60;;;7.32;;
62401;SDS011;48440;51.224;22.506;2023-04-25T10:23:29;9.25;;;6.57;;
62401;SDS011;48440;51.224;22.506;2023-04-25T10:25:55;8.43;;;6.60;;
62401;SDS011;48440;51.224;22.506;2023-04-25T10:28:22;9.00;;;6.68;;
62401;SDS011;48440;51.224;22.506;2023-04-25T10:31:02;8.02;;;7.00;;
62401;SDS011;48440;51.224;22.506;2023-04-25T10:33:29;8.75;;;6.75;;
62401;SDS011;48440;51.224;22.506;2023-04-25T10:35:58;9.93;;;6.65;;
62401;SDS011;48440;51.224;22.506;2023-04-25T10:38:37;10.27;;;6.35;;
62401;SDS011;48440;51.224;22.506;2023-04-25T10:41:04;7.10;;;5.82;;
62401;SDS011;48440;51.224;22.506;2023-04-25T10:43:35;8.10;;;6.43;;
62401;SDS011;48440;51.224;22.506;2023-04-25T10:46:13;8.13;;;6.47;;
62401;SDS011;48440;51.224;22.506;2023-04-25T10:48:56;8.18;;;6.63;;
62401;SDS011;48440;51.224;22.506;2023-04-25T10:51:26;9.70;;;6.47;;
62401;SDS011;48440;51.224;22.506;2023-04-25T10:54:05;7.78;;;6.32;;
62401;SDS011;48440;51.224;22.506;2023-04-25T10:56:33;7.45;;;6.00;;
62401;SDS011;48440;51.224;22.506;2023-04-25T10:59:08;6.50;;;5.50;;
62401;SDS011;48440;51.224;22.506;2023-04-25T11:01:37;9.10;;;6.38;;
62401;SDS011;48440;51.224;22.506;2023-04-25T11:04:04;8.05;;;5.90;;
62401;SDS011;48440;51.224;22.506;2023-04-25T11:06:46;6.78;;;5.65;;
62401;SDS011;48440;51.224;22.506;2023-04-25T11:09:36;7.82;;;5.80;;
62401;SDS011;48440;51.224;22.506;2023-04-25T11:12:06;7.18;;;5.60;;
62401;SDS011;48440;51.224;22.506;2023-04-25T11:14:33;7.88;;;5.70;;
62401;SDS011;48440;51.224;22.506;2023-04-25T11:17:00;6.13;;;5.13;;
62401;SDS011;48440;51.224;22.506;2023-04-25T11:19:27;6.80;;;5.53;;
62401;SDS011;48440;51.224;22.506;2023-04-25T11:22:00;7.50;;;5.63;;
62401;SDS011;48440;51.224;22.506;2023-04-25T11:26:54;7.80;;;5.88;;
62401;SDS011;48440;51.224;22.506;2023-04-25T11:29:27;8.23;;;5.78;;
62401;SDS011;48440;51.224;22.506;2023-04-25T11:31:54;7.32;;;6.10;;
62401;SDS011;48440;51.224;22.506;2023-04-25T11:34:26;9.43;;;6.47;;
62401;SDS011;48440;51.224;22.506;2023-04-25T11:36:52;7.38;;;5.55;;
62401;SDS011;48440;51.224;22.506;2023-04-25T11:39:20;7.20;;;5.60;;
62401;SDS011;48440;51.224;22.506;2023-04-25T11:41:46;7.03;;;5.15;;
62401;SDS011;48440;51.224;22.506;2023-04-25T11:44:12;5.18;;;4.10;;
62401;SDS011;48440;51.224;22.506;2023-04-25T11:46:43;5.25;;;4.47;;
62401;SDS011;48440;51.224;22.506;2023-04-25T11:49:12;4.50;;;4.07;;
62401;SDS011;48440;51.224;22.506;2023-04-25T11:51:39;5.45;;;4.28;;
62401;SDS011;48440;51.224;22.506;2023-04-25T11:54:08;7.15;;;4.70;;
62401;SDS011;48440;51.224;22.506;2023-04-25T11:56:34;6.35;;;4.68;;
62401;SDS011;48440;51.224;22.506;2023-04-25T11:59:05;5.53;;;4.80;;
62401;SDS011;48440;51.224;22.506;2023-04-25T12:01:32;5.85;;;4.35;;
62401;SDS011;48440;51.224;22.506;2023-04-25T12:04:21;7.15;;;4.35;;
62401;SDS011;48440;51.224;22.506;2023-04-25T12:06:52;5.93;;;4.65;;
62401;SDS011;48440;51.224;22.506;2023-04-25T12:09:30;5.68;;;4.35;;
62401;SDS011;48440;51.224;22.506;2023-04-25T12:12:03;6.63;;;4.50;;
62401;SDS011;48440;51.224;22.506;2023-04-25T12:14:31;7.63;;;4.68;;
62401;SDS011;48440;51.224;22.506;2023-04-25T12:19:33;6.18;;;4.07;;
62401;SDS011;48440;51.224;22.506;2023-04-25T12:22:01;5.53;;;4.70;;
62401;SDS011;48440;51.224;22.506;2023-04-25T12:24:46;5.50;;;4.40;;
62401;SDS011;48440;51.224;22.506;2023-04-25T12:27:20;5.95;;;5.07;;
62401;SDS011;48440;51.224;22.506;2023-04-25T12:29:55;5.82;;;5.10;;
62401;SDS011;48440;51.224;22.506;2023-04-25T12:32:32;6.30;;;5.30;;
62401;SDS011;48440;51.224;22.506;2023-04-25T12:35:05;6.97;;;5.75;;
62401;SDS011;48440;51.224;22.506;2023-04-25T12:37:31;6.80;;;6.10;;
62401;SDS011;48440;51.224;22.506;2023-04-25T12:39:59;5.82;;;5.22;;
62401;SDS011;48440;51.224;22.506;2023-04-25T12:42:24;6.68;;;5.82;;
62401;SDS011;48440;51.224;22.506;2023-04-25T12:44:51;8.02;;;6.22;;
62401;SDS011;48440;51.224;22.506;2023-04-25T12:47:22;7.78;;;6.43;;
62401;SDS011;48440;51.224;22.506;2023-04-25T12:49:52;7.72;;;6.07;;
62401;SDS011;48440;51.224;22.506;2023-04-25T12:52:18;6.22;;;5.63;;
62401;SDS011;48440;51.224;22.506;2023-04-25T12:54:44;6.80;;;6.03;;
62401;SDS011;48440;51.224;22.506;2023-04-25T12:57:10;6.03;;;5.47;;
62401;SDS011;48440;51.224;22.506;2023-04-25T12:59:37;7.78;;;5.78;;
62401;SDS011;48440;51.224;22.506;2023-04-25T13:02:04;8.00;;;6.57;;
62401;SDS011;48440;51.224;22.506;2023-04-25T13:04:29;7.15;;;6.00;;
62401;SDS011;48440;51.224;22.506;2023-04-25T13:06:56;7.10;;;6.40;;
62401;SDS011;48440;51.224;22.506;2023-04-25T13:09:22;8.00;;;6.20;;
62401;SDS011;48440;51.224;22.506;2023-04-25T13:11:47;7.18;;;6.22;;
62401;SDS011;48440;51.224;22.506;2023-04-25T13:14:13;9.23;;;6.75;;
62401;SDS011;48440;51.224;22.506;2023-04-25T13:16:39;8.20;;;6.38;;
62401;SDS011;48440;51.224;22.506;2023-04-25T13:19:04;7.82;;;6.07;;
62401;SDS011;48440;51.224;22.506;2023-04-25T13:21:32;7.50;;;5.90;;
62401;SDS011;48440;51.224;22.506;2023-04-25T13:23:58;8.32;;;6.32;;
62401;SDS011;48440;51.224;22.506;2023-04-25T13:26:24;7.55;;;5.80;;
62401;SDS011;48440;51.224;22.506;2023-04-25T13:28:50;7.85;;;6.28;;
62401;SDS011;48440;51.224;22.506;2023-04-25T13:31:16;8.27;;;6.43;;
62401;SDS011;48440;51.224;22.506;2023-04-25T13:33:42;7.82;;;6.15;;
62401;SDS011;48440;51.224;22.506;2023-04-25T13:36:09;8.57;;;6.65;;
62401;SDS011;48440;51.224;22.506;2023-04-25T13:38:35;9.15;;;7.20;;
62401;SDS011;48440;51.224;22.506;2023-04-25T13:41:00;8.52;;;6.72;;
62401;SDS011;48440;51.224;22.506;2023-04-25T13:43:26;8.18;;;6.63;;
62401;SDS011;48440;51.224;22.506;2023-04-25T13:45:52;8.95;;;7.30;;
62401;SDS011;48440;51.224;22.506;2023-04-25T13:48:18;9.60;;;7.63;;
62401;SDS011;48440;51.224;22.506;2023-04-25T13:50:45;8.18;;;7.10;;
62401;SDS011;48440;51.224;22.506;2023-04-25T13:53:11;9.48;;;8.00;;
62401;SDS011;48440;51.224;22.506;2023-04-25T13:55:37;9.93;;;8.00;;
62401;SDS011;48440;51.224;22.506;2023-04-25T13:58:04;9.93;;;8.02;;
62401;SDS011;48440;51.224;22.506;2023-04-25T14:00:35;10.30;;;8.13;;
62401;SDS011;48440;51.224;22.506;2023-04-25T14:03:03;10.07;;;8.13;;
62401;SDS011;48440;51.224;22.506;2023-04-25T14:05:32;12.35;;;8.20;;
62401;SDS011;48440;51.224;22.506;2023-04-25T14:08:03;9.90;;;8.15;;
62401;SDS011;48440;51.224;22.506;2023-04-25T14:10:30;9.80;;;8.25;;
62401;SDS011;48440;51.224;22.506;2023-04-25T14:12:56;10.02;;;8.05;;
62401;SDS011;48440;51.224;22.506;2023-04-25T14:15:22;10.00;;;8.18;;
62401;SDS011;48440;51.224;22.506;2023-04-25T14:17:48;10.23;;;8.68;;
62401;SDS011;48440;51.224;22.506;2023-04-25T14:20:14;10.98;;;9.20;;
62401;SDS011;48440;51.224;22.506;2023-04-25T14:22:41;10.00;;;8.02;;
62401;SDS011;48440;51.224;22.506;2023-04-25T14:25:09;9.88;;;8.40;;
62401;SDS011;48440;51.224;22.506;2023-04-25T14:27:36;10.75;;;8.25;;
62401;SDS011;48440;51.224;22.506;2023-04-25T14:30:02;13.35;;;9.35;;
62401;SDS011;48440;51.224;22.506;2023-04-25T14:32:27;10.88;;;8.18;;
62401;SDS011;48440;51.224;22.506;2023-04-25T14:34:53;12.80;;;9.13;;
62401;SDS011;48440;51.224;22.506;2023-04-25T14:37:19;10.45;;;8.68;;
62401;SDS011;48440;51.224;22.506;2023-04-25T14:39:45;11.38;;;9.23;;
62401;SDS011;48440;51.224;22.506;2023-04-25T14:42:11;12.30;;;8.63;;
62401;SDS011;48440;51.224;22.506;2023-04-25T14:44:37;9.63;;;8.50;;
62401;SDS011;48440;51.224;22.506;2023-04-25T14:47:03;10.70;;;8.63;;
62401;SDS011;48440;51.224;22.506;2023-04-25T14:49:29;11.43;;;9.30;;
62401;SDS011;48440;51.224;22.506;2023-04-25T14:51:54;10.38;;;9.07;;
62401;SDS011;48440;51.224;22.506;2023-04-25T14:54:20;12.50;;;9.43;;